Time;durP1;ratioP1;P1;durP2;ratioP2;P2;SDS_P1;SDS_P2;PMS_P1;PMS_P2;Temp;Humidity;BMP_temperature;BMP_pressure;BME280_temperature;BME280_humidity;BME280_pressure;Samples;Min_cycle;Max_cycle;Signal;HPM_P1;HPM_P2
2022/09/05 00:00:30;;;;;;;20.08;14.80;;;20.30;80.60;;;;;;5073013;28;20031;-56
2022/09/05 00:03:30;;;;;;;11.48;9.05;;;20.20;81.00;;;;;;5073676;28;20089;-50
2022/09/05 00:06:16;;;;;;;10.48;8.00;;;20.20;81.30;;;;;;5073125;28;20113;-56
2022/09/05 00:09:16;;;;;;;13.35;10.32;;;20.20;81.60;;;;;;5053839;28;20036;-53
2022/09/05 00:12:05;;;;;;;13.23;11.93;;;20.10;82.00;;;;;;5057062;28;20040;-57
2022/09/05 00:14:57;;;;;;;11.70;9.02;;;20.10;82.20;;;;;;5072205;28;20017;-55
2022/09/05 00:18:10;;;;;;;16.27;12.88;;;20.10;82.30;;;;;;5078057;28;20016;-52
2022/09/05 00:21:16;;;;;;;21.73;14.52;;;20.10;83.00;;;;;;5063504;28;20040;-51
2022/09/05 00:24:11;;;;;;;9.07;7.78;;;20.10;82.70;;;;;;5073693;28;20031;-51
2022/09/05 00:27:29;;;;;;;8.13;7.32;;;20.10;82.80;;;;;;5073785;28;20028;-52
2022/09/05 00:30:19;;;;;;;10.10;8.30;;;20.10;83.20;;;;;;5080478;28;20031;-53
2022/09/05 00:33:08;;;;;;;7.55;6.85;;;20.00;83.10;;;;;;5072138;28;20033;-52
2022/09/05 00:36:09;;;;;;;17.55;13.52;;;20.00;83.40;;;;;;5084468;28;20077;-55
2022/09/05 00:39:06;;;;;;;9.10;8.20;;;20.00;83.50;;;;;;5092381;28;20533;-59
2022/09/05 00:41:55;;;;;;;8.43;7.63;;;20.00;83.70;;;;;;5071502;28;20078;-57
2022/09/05 00:44:55;;;;;;;9.48;8.50;;;19.90;83.80;;;;;;5072744;28;20074;-55
2022/09/05 00:47:46;;;;;;;10.75;9.68;;;20.00;84.10;;;;;;5092117;28;20423;-54
2022/09/05 00:51:05;;;;;;;11.63;10.48;;;19.90;84.10;;;;;;5073748;28;20025;-57
2022/09/05 00:54:22;;;;;;;9.77;8.77;;;20.00;84.30;;;;;;5090971;28;20081;-52
2022/09/05 00:57:30;;;;;;;17.55;13.07;;;19.90;84.70;;;;;;5072942;28;20040;-55
2022/09/05 01:00:20;;;;;;;12.73;9.68;;;19.90;84.50;;;;;;5072102;28;20017;-52
2022/09/05 01:03:45;;;;;;;9.35;7.90;;;19.90;84.70;;;;;;5063870;28;20120;-51
2022/09/05 01:06:49;;;;;;;9.50;7.75;;;19.80;84.60;;;;;;5056347;28;20037;-55
2022/09/05 01:09:35;;;;;;;10.77;7.55;;;19.80;85.10;;;;;;5051845;28;20036;-53
2022/09/05 01:12:32;;;;;;;8.43;7.10;;;19.80;85.10;;;;;;5061832;28;20043;-51
2022/09/05 01:15:53;;;;;;;8.18;6.97;;;19.80;85.40;;;;;;5091422;28;20024;-52
2022/09/05 01:18:54;;;;;;;9.73;7.63;;;19.80;85.60;;;;;;5031943;28;20029;-54
2022/09/05 01:21:43;;;;;;;14.95;12.80;;;19.70;85.70;;;;;;5071726;28;20151;-53
2022/09/05 01:24:52;;;;;;;28.63;21.08;;;19.70;85.90;;;;;;5053604;28;20064;-51
2022/09/05 01:27:47;;;;;;;15.10;10.35;;;19.70;86.10;;;;;;5068598;28;20023;-50
2022/09/05 01:30:49;;;;;;;9.73;8.50;;;19.70;86.30;;;;;;5095645;28;20016;-53
2022/09/05 01:34:10;;;;;;;8.55;7.65;;;19.70;86.30;;;;;;5090907;28;20024;-52
2022/09/05 01:37:42;;;;;;;8.77;7.90;;;19.60;86.60;;;;;;5090329;28;20107;-50
2022/09/05 01:40:52;;;;;;;8.85;7.60;;;19.60;86.90;;;;;;5087252;28;20029;-51
2022/09/05 01:44:01;;;;;;;9.63;7.70;;;19.60;87.00;;;;;;5070311;28;20020;-52
2022/09/05 01:47:25;;;;;;;9.05;7.90;;;19.60;87.00;;;;;;5070061;28;20117;-48
2022/09/05 01:50:45;;;;;;;14.45;12.98;;;19.60;87.00;;;;;;5071712;28;20553;-49
2022/09/05 01:53:37;;;;;;;13.30;12.00;;;19.60;87.40;;;;;;5069405;28;20028;-52
2022/09/05 01:56:40;;;;;;;11.30;9.63;;;19.50;87.60;;;;;;5050146;28;20136;-53
2022/09/05 01:59:38;;;;;;;9.48;8.52;;;19.50;87.60;;;;;;5074813;28;20027;-47
2022/09/05 02:02:54;;;;;;;8.38;7.57;;;19.50;87.50;;;;;;5089148;28;20104;-49
2022/09/05 02:06:18;;;;;;;8.73;7.88;;;19.50;87.80;;;;;;5050033;28;20120;-47
2022/09/05 02:09:09;;;;;;;8.60;7.70;;;19.40;87.90;;;;;;5088506;28;20032;-51
2022/09/05 02:12:15;;;;;;;10.07;9.18;;;19.40;88.00;;;;;;5089260;28;20034;-51
2022/09/05 02:15:18;;;;;;;11.32;9.82;;;19.40;87.90;;;;;;5089566;28;20711;-47
2022/09/05 02:18:09;;;;;;;13.90;9.98;;;19.40;87.90;;;;;;5066276;28;20020;-48
2022/09/05 02:20:59;;;;;;;12.98;11.75;;;19.30;88.10;;;;;;5070079;28;20039;-50
2022/09/05 02:24:08;;;;;;;11.00;9.90;;;19.30;88.20;;;;;;5083985;28;20032;-49
2022/09/05 02:27:19;;;;;;;10.15;9.00;;;19.30;88.40;;;;;;5081929;28;20030;-51
2022/09/05 02:30:10;;;;;;;10.38;9.02;;;19.30;88.40;;;;;;5070471;28;20032;-48
2022/09/05 02:33:09;;;;;;;11.38;8.63;;;19.30;88.30;;;;;;5088985;28;20035;-52
2022/09/05 02:36:27;;;;;;;9.80;8.80;;;19.20;88.40;;;;;;5082693;28;20028;-48
2022/09/05 02:39:32;;;;;;;10.23;8.45;;;19.20;88.60;;;;;;5070481;28;20050;-48
2022/09/05 02:42:30;;;;;;;9.70;8.80;;;19.20;88.80;;;;;;5086713;28;20510;-49
2022/09/05 02:45:27;;;;;;;11.90;10.57;;;19.20;89.00;;;;;;5088969;28;20067;-56
2022/09/05 02:48:25;;;;;;;14.23;12.35;;;19.20;89.10;;;;;;5035585;28;20099;-52
2022/09/05 02:51:30;;;;;;;12.15;10.95;;;19.10;89.40;;;;;;5063689;28;20063;-51
2022/09/05 02:54:27;;;;;;;11.55;10.45;;;19.00;89.70;;;;;;5086878;28;20051;-48
2022/09/05 02:57:32;;;;;;;9.30;8.40;;;19.00;89.80;;;;;;5069360;28;20037;-51
2022/09/05 03:00:21;;;;;;;9.48;8.50;;;19.00;89.80;;;;;;5078519;28;20020;-49
2022/09/05 03:03:20;;;;;;;9.55;8.65;;;19.00;89.80;;;;;;5088676;28;20036;-51
2022/09/05 03:06:41;;;;;;;9.57;8.55;;;19.00;89.90;;;;;;5072571;28;20489;-50
2022/09/05 03:09:38;;;;;;;9.98;9.07;;;19.00;90.00;;;;;;5059184;28;20066;-52
2022/09/05 03:12:51;;;;;;;12.57;11.27;;;18.90;90.10;;;;;;5068698;28;20500;-53
2022/09/05 03:16:14;;;;;;;11.77;9.93;;;18.80;90.10;;;;;;5078878;28;20028;-50
2022/09/05 03:19:18;;;;;;;9.82;8.35;;;18.70;90.30;;;;;;5088991;28;20553;-51
2022/09/05 03:22:34;;;;;;;9.18;8.35;;;18.60;90.50;;;;;;5034659;28;20036;-51
2022/09/05 03:25:40;;;;;;;10.40;9.10;;;18.60;90.60;;;;;;5064960;28;20487;-51
2022/09/05 03:28:57;;;;;;;11.90;8.95;;;18.50;90.70;;;;;;5092771;28;20034;-49
2022/09/05 03:32:00;;;;;;;9.82;8.80;;;18.50;90.70;;;;;;5059340;28;20032;-54
2022/09/05 03:35:05;;;;;;;10.45;9.35;;;18.50;90.90;;;;;;5073665;28;20024;-52
2022/09/05 03:38:10;;;;;;;11.07;9.10;;;18.40;91.00;;;;;;5093021;28;20032;-49
2022/09/05 03:41:29;;;;;;;9.77;8.77;;;18.30;91.00;;;;;;5081051;28;20024;-50
2022/09/05 03:44:30;;;;;;;10.65;9.20;;;18.40;91.10;;;;;;5088084;28;20028;-49
2022/09/05 03:47:50;;;;;;;10.13;9.13;;;18.40;91.00;;;;;;5092330;28;20605;-52
2022/09/05 03:50:52;;;;;;;11.70;8.63;;;18.30;91.10;;;;;;5051815;28;20166;-50
2022/09/05 03:53:50;;;;;;;10.43;8.50;;;18.30;91.00;;;;;;5072453;28;20031;-52
2022/09/05 03:57:11;;;;;;;10.10;9.10;;;18.30;91.10;;;;;;5092541;28;20031;-48
2022/09/05 04:00:23;;;;;;;11.95;9.35;;;18.30;91.00;;;;;;5072383;28;20025;-49
2022/09/05 04:03:31;;;;;;;10.00;8.73;;;18.30;91.20;;;;;;5073193;28;20051;-50
2022/09/05 04:06:33;;;;;;;12.77;9.07;;;18.20;91.30;;;;;;5081119;28;20024;-48
2022/09/05 04:09:47;;;;;;;9.65;8.75;;;18.30;91.30;;;;;;5092466;28;20032;-51
2022/09/05 04:12:42;;;;;;;10.60;9.18;;;18.20;91.30;;;;;;5036782;28;20029;-50
2022/09/05 04:15:42;;;;;;;12.13;8.82;;;18.10;91.40;;;;;;5052261;28;20044;-47
2022/09/05 04:18:37;;;;;;;12.40;8.93;;;18.10;91.60;;;;;;5056967;28;20067;-48
2022/09/05 04:21:28;;;;;;;;;;;18.00;91.70;;;;;;5072076;28;20028;-51
2022/09/05 04:24:27;;;;;;;12.98;9.85;;;18.00;91.80;;;;;;5082963;28;19912;-53
2022/09/05 04:27:28;;;;;;;10.07;9.15;;;18.00;91.80;;;;;;5058871;28;20021;-47
2022/09/05 04:30:23;;;;;;;9.43;8.52;;;17.90;91.90;;;;;;5077178;28;20020;-48
2022/09/05 04:33:29;;;;;;;12.05;8.65;;;17.90;92.00;;;;;;5095592;28;20085;-52
2022/09/05 04:36:36;;;;;;;9.30;8.45;;;17.90;92.00;;;;;;5071875;28;20033;-52
2022/09/05 04:39:23;;;;;;;10.90;8.90;;;17.90;92.10;;;;;;5078323;28;20008;-50
2022/09/05 04:42:23;;;;;;;10.85;8.77;;;17.90;92.10;;;;;;5078798;28;20032;-51
2022/09/05 04:45:14;;;;;;;10.20;8.88;;;17.90;92.10;;;;;;5071264;28;20048;-49
2022/09/05 04:48:04;;;;;;;12.15;8.60;;;17.90;92.00;;;;;;5056700;28;20472;-53
2022/09/05 04:51:07;;;;;;;12.82;8.63;;;17.80;92.30;;;;;;5051160;28;20025;-53
2022/09/05 04:54:14;;;;;;;10.27;9.23;;;17.70;92.50;;;;;;5062697;28;20075;-51
2022/09/05 04:57:12;;;;;;;9.95;8.95;;;17.80;92.50;;;;;;5079248;28;20032;-49
2022/09/05 04:59:58;;;;;;;10.02;9.13;;;17.80;92.40;;;;;;5071108;28;20025;-51
2022/09/05 05:02:45;;;;;;;10.77;8.85;;;17.80;92.40;;;;;;5078953;28;20047;-49
2022/09/05 05:06:00;;;;;;;18.50;10.10;;;17.70;92.70;;;;;;5091148;28;20032;-53
2022/09/05 05:09:06;;;;;;;11.40;9.07;;;17.70;92.70;;;;;;5052124;28;20029;-50
2022/09/05 05:12:03;;;;;;;10.77;9.20;;;17.80;92.60;;;;;;5061518;28;20036;-50
2022/09/05 05:14:56;;;;;;;12.43;9.32;;;17.80;92.60;;;;;;5090933;28;20083;-51
2022/09/05 05:18:12;;;;;;;9.90;8.90;;;17.80;92.60;;;;;;5078183;28;20115;-51
2022/09/05 05:21:07;;;;;;;9.38;8.48;;;17.80;92.60;;;;;;5080530;28;20022;-50
2022/09/05 05:24:08;;;;;;;9.88;8.25;;;17.90;92.60;;;;;;5090930;28;20031;-56
2022/09/05 05:27:28;;;;;;;11.02;8.70;;;18.00;92.50;;;;;;5073923;28;20378;-52
2022/09/05 05:30:25;;;;;;;13.13;8.55;;;18.20;92.10;;;;;;5071111;28;20052;-52
2022/09/05 05:33:36;;;;;;;9.45;8.55;;;18.20;92.20;;;;;;5089520;28;20496;-49
2022/09/05 05:36:30;;;;;;;11.57;9.15;;;18.10;92.20;;;;;;5079330;28;20400;-53
2022/09/05 05:39:28;;;;;;;56.40;36.55;;;18.10;92.40;;;;;;5069340;28;20020;-55
2022/09/05 05:42:23;;;;;;;16.95;13.25;;;18.10;92.40;;;;;;5075232;28;20111;-51
2022/09/05 05:45:30;;;;;;;11.02;9.65;;;18.10;92.40;;;;;;5070552;28;20028;-53
2022/09/05 05:48:19;;;;;;;15.30;11.13;;;18.20;92.50;;;;;;5059643;28;20033;-52
2022/09/05 05:51:22;;;;;;;18.10;8.65;;;18.10;92.40;;;;;;5069090;28;20017;-49
2022/09/05 05:54:52;;;;;;;16.38;9.52;;;18.20;92.50;;;;;;5069858;28;20029;-52
2022/09/05 05:57:44;;;;;;;14.40;9.82;;;18.30;92.40;;;;;;5070461;28;20488;-53
2022/09/05 06:00:55;;;;;;;13.50;9.68;;;18.30;92.20;;;;;;5056048;28;20484;-51
2022/09/05 06:03:49;;;;;;;9.95;8.40;;;18.30;92.30;;;;;;5074207;28;20059;-50
2022/09/05 06:06:54;;;;;;;32.42;12.07;;;18.20;92.40;;;;;;5076726;28;20020;-52
2022/09/05 06:10:08;;;;;;;198.68;40.28;;;18.30;92.60;;;;;;5068410;28;20037;-54
2022/09/05 06:13:30;;;;;;;23.45;10.23;;;18.40;92.40;;;;;;5066516;28;20108;-51
2022/09/05 06:16:43;;;;;;;12.50;9.20;;;18.50;92.20;;;;;;5060853;28;20112;-53
2022/09/05 06:19:41;;;;;;;14.95;9.90;;;18.50;92.00;;;;;;5070072;28;20388;-49
2022/09/05 06:23:00;;;;;;;14.00;9.27;;;18.50;92.20;;;;;;5073312;28;20024;-52
2022/09/05 06:26:15;;;;;;;19.45;11.90;;;18.50;92.40;;;;;;5085616;28;20143;-54
2022/09/05 06:29:15;;;;;;;20.73;15.25;;;18.50;92.10;;;;;;5065404;28;20029;-54
2022/09/05 06:32:06;;;;;;;20.23;14.00;;;18.60;92.50;;;;;;5089548;28;20035;-55
2022/09/05 06:35:09;;;;;;;32.78;23.42;;;18.70;92.40;;;;;;5070540;28;20052;-51
2022/09/05 06:38:14;;;;;;;15.70;11.75;;;18.80;92.10;;;;;;5053591;28;20485;-52
2022/09/05 06:41:18;;;;;;;;;;;19.00;92.00;;;;;;5090834;28;20024;-52
2022/09/05 06:44:33;;;;;;;11.77;10.18;;;19.10;91.90;;;;;;5074624;28;20283;-51
2022/09/05 06:47:20;;;;;;;12.23;10.93;;;19.30;91.70;;;;;;5033422;28;20174;-51
2022/09/05 06:50:13;;;;;;;13.05;10.07;;;19.40;91.60;;;;;;5051103;28;20041;-53
2022/09/05 06:53:02;;;;;;;10.23;9.23;;;19.60;91.40;;;;;;5040558;28;20048;-56
2022/09/05 06:56:08;;;;;;;12.30;9.30;;;19.70;91.20;;;;;;5069731;28;20028;-52
2022/09/05 06:59:20;;;;;;;14.32;10.85;;;19.70;91.00;;;;;;5085014;28;20553;-54
2022/09/05 07:02:33;;;;;;;24.00;12.23;;;19.70;91.20;;;;;;5069868;28;20024;-53
2022/09/05 07:05:45;;;;;;;10.57;9.48;;;19.50;91.50;;;;;;5069901;28;20020;-53
2022/09/05 07:09:05;;;;;;;13.68;10.23;;;19.60;91.50;;;;;;5053025;28;20489;-53
2022/09/05 07:12:06;;;;;;;16.73;10.70;;;19.60;91.60;;;;;;5061245;28;20122;-52
2022/09/05 07:15:11;;;;;;;15.82;9.77;;;19.70;91.60;;;;;;5063660;28;20032;-52
2022/09/05 07:18:21;;;;;;;11.98;10.60;;;19.80;91.50;;;;;;5078793;28;20558;-57
2022/09/05 07:21:25;;;;;;;11.30;9.85;;;19.90;91.50;;;;;;5077219;28;20544;-55
2022/09/05 07:24:21;;;;;;;11.70;9.47;;;19.90;91.40;;;;;;5079895;28;20031;-51
2022/09/05 07:27:10;;;;;;;12.35;10.02;;;20.00;91.40;;;;;;5079824;28;20947;-52
2022/09/05 07:29:58;;;;;;;12.90;9.90;;;20.20;91.30;;;;;;5067914;28;20032;-53
2022/09/05 07:32:51;;;;;;;10.98;9.75;;;20.30;91.10;;;;;;5088363;28;20074;-49
2022/09/05 07:35:39;;;;;;;11.55;10.18;;;20.30;91.10;;;;;;5089917;28;20020;-51
2022/09/05 07:38:30;;;;;;;10.52;9.45;;;20.40;91.10;;;;;;5082813;28;20028;-55
2022/09/05 07:41:32;;;;;;;10.75;9.70;;;20.50;91.00;;;;;;5067070;28;20031;-54
2022/09/05 07:44:22;;;;;;;12.52;11.30;;;20.60;90.80;;;;;;5081743;28;20107;-52
2022/09/05 07:47:15;;;;;;;13.50;9.93;;;20.60;90.80;;;;;;5080088;28;20537;-50
2022/09/05 07:50:10;;;;;;;12.23;10.55;;;20.60;90.80;;;;;;5081656;28;20033;-49
2022/09/05 07:53:02;;;;;;;11.18;10.02;;;20.70;90.90;;;;;;5074147;28;20515;-53
2022/09/05 07:56:01;;;;;;;16.38;11.05;;;20.90;90.70;;;;;;5059697;28;20457;-51
2022/09/05 07:58:51;;;;;;;12.30;10.55;;;21.00;90.50;;;;;;5073901;28;20054;-56
2022/09/05 08:01:39;;;;;;;10.93;9.65;;;21.10;90.40;;;;;;5069719;28;20112;-51
2022/09/05 08:04:32;;;;;;;15.70;10.30;;;21.10;90.30;;;;;;5078266;28;20028;-52
2022/09/05 08:07:28;;;;;;;10.95;9.85;;;21.10;90.40;;;;;;5067104;28;20039;-48
2022/09/05 08:10:22;;;;;;;13.02;10.10;;;21.20;90.40;;;;;;5077938;28;20487;-50
2022/09/05 08:13:12;;;;;;;10.93;9.82;;;21.20;90.40;;;;;;5051629;28;20036;-54
2022/09/05 08:15:58;;;;;;;15.23;10.43;;;21.30;90.10;;;;;;5062785;28;20028;-52
2022/09/05 08:19:12;;;;;;;13.50;10.98;;;21.30;90.20;;;;;;5072291;28;20029;-50
2022/09/05 08:22:01;;;;;;;12.68;10.63;;;21.40;90.10;;;;;;5055440;28;20020;-52
2022/09/05 08:25:17;;;;;;;14.82;11.35;;;21.50;90.00;;;;;;5071552;28;20588;-52
2022/09/05 08:28:18;;;;;;;13.68;11.43;;;21.60;90.00;;;;;;5071077;28;20047;-52
2022/09/05 08:31:15;;;;;;;11.68;10.57;;;21.60;90.00;;;;;;5082747;28;20021;-56
2022/09/05 08:34:02;;;;;;;11.13;10.07;;;21.60;90.00;;;;;;5042627;28;20025;-50
2022/09/05 08:36:50;;;;;;;14.10;11.15;;;21.60;90.00;;;;;;5072823;28;20036;-50
2022/09/05 08:39:36;;;;;;;14.65;10.07;;;21.60;90.10;;;;;;5067443;28;20090;-52
2022/09/05 08:42:47;;;;;;;13.30;10.27;;;21.70;90.10;;;;;;5055523;28;20111;-51
2022/09/05 08:45:49;;;;;;;11.38;10.10;;;21.80;90.20;;;;;;5051137;28;20493;-53
2022/09/05 08:48:53;;;;;;;12.82;10.00;;;21.90;89.70;;;;;;5052258;28;20082;-53
2022/09/05 08:51:52;;;;;;;10.77;9.67;;;21.90;89.70;;;;;;5067057;28;20024;-54
2022/09/05 08:54:58;;;;;;;11.82;10.65;;;22.10;89.50;;;;;;5066203;28;20319;-55
2022/09/05 08:57:44;;;;;;;10.00;8.93;;;22.10;89.60;;;;;;5060212;28;20469;-56
2022/09/05 09:00:41;;;;;;;11.80;10.60;;;22.20;89.30;;;;;;5083878;28;20043;-51
2022/09/05 09:03:40;;;;;;;10.82;9.73;;;22.30;89.10;;;;;;5064182;28;20024;-55
2022/09/05 09:06:52;;;;;;;12.23;10.02;;;22.30;89.10;;;;;;5080249;28;20050;-50
2022/09/05 09:10:00;;;;;;;16.75;14.93;;;22.40;89.20;;;;;;5069622;28;20027;-52
2022/09/05 09:13:04;;;;;;;12.73;10.35;;;22.60;88.90;;;;;;5071943;28;20090;-53
2022/09/05 09:15:59;;;;;;;13.80;10.05;;;22.70;88.40;;;;;;5083882;28;20036;-54
2022/09/05 09:18:48;;;;;;;10.30;9.35;;;22.90;88.10;;;;;;5088968;28;20109;-52
2022/09/05 09:21:46;;;;;;;13.32;10.60;;;22.80;88.30;;;;;;5082381;28;20033;-53
2022/09/05 09:24:37;;;;;;;11.85;10.52;;;23.00;88.00;;;;;;5064451;28;20025;-50
2022/09/05 09:27:47;;;;;;;11.63;10.60;;;23.10;87.80;;;;;;5071052;28;20276;-47
2022/09/05 09:30:35;;;;;;;15.32;10.60;;;23.10;87.70;;;;;;5077100;28;20028;-50
2022/09/05 09:33:35;;;;;;;10.80;9.65;;;23.20;87.40;;;;;;5071185;28;20138;-55
2022/09/05 09:36:36;;;;;;;12.18;10.88;;;23.30;87.10;;;;;;5064284;28;20061;-54
2022/09/05 09:39:34;;;;;;;10.55;9.55;;;23.40;87.00;;;;;;5066973;28;20024;-52
2022/09/05 09:43:00;;;;;;;12.50;11.05;;;23.30;87.30;;;;;;5077038;28;20114;-48
2022/09/05 09:46:08;;;;;;;10.45;9.48;;;23.50;87.20;;;;;;5086142;28;20024;-52
2022/09/05 09:49:20;;;;;;;11.52;10.43;;;23.60;87.00;;;;;;5050962;28;20032;-50
2022/09/05 09:52:21;;;;;;;10.90;9.77;;;23.70;86.60;;;;;;5069603;28;20494;-50
2022/09/05 09:55:42;;;;;;;14.77;10.13;;;23.80;86.20;;;;;;5077515;28;20043;-54
2022/09/05 09:58:28;;;;;;;11.93;9.95;;;24.00;85.80;;;;;;5070358;28;20108;-51
2022/09/05 10:01:33;;;;;;;13.00;10.30;;;24.10;85.50;;;;;;5060147;28;20047;-54
2022/09/05 10:04:41;;;;;;;10.60;9.60;;;24.10;85.20;;;;;;5074968;28;20016;-50
2022/09/05 10:07:55;;;;;;;12.68;11.00;;;24.20;85.20;;;;;;5077552;28;20028;-48
2022/09/05 10:11:17;;;;;;;10.88;9.75;;;24.10;85.10;;;;;;5076347;28;20108;-49
2022/09/05 10:14:23;;;;;;;11.60;9.15;;;24.30;84.60;;;;;;5048333;28;20029;-51
2022/09/05 10:17:42;;;;;;;14.07;10.57;;;24.40;84.40;;;;;;5068579;28;20041;-50
2022/09/05 10:20:50;;;;;;;10.70;9.55;;;24.60;83.90;;;;;;5048673;28;20094;-54
2022/09/05 10:23:48;;;;;;;19.40;10.45;;;24.60;83.50;;;;;;5081077;28;20029;-49
2022/09/05 10:26:56;;;;;;;11.98;10.75;;;24.60;83.30;;;;;;5057763;28;20401;-50
2022/09/05 10:30:08;;;;;;;11.10;9.88;;;24.50;83.40;;;;;;5076804;28;20028;-51
2022/09/05 10:33:24;;;;;;;10.68;9.10;;;24.50;83.50;;;;;;5075553;28;20108;-51
2022/09/05 10:36:26;;;;;;;9.82;8.63;;;24.60;83.20;;;;;;5073499;28;20039;-49
2022/09/05 10:39:18;;;;;;;10.63;9.05;;;24.70;83.10;;;;;;5080080;28;20031;-50
2022/09/05 10:42:16;;;;;;;9.38;8.48;;;24.80;82.90;;;;;;5074845;28;20033;-50
2022/09/05 10:45:12;;;;;;;11.10;9.05;;;24.90;83.10;;;;;;5085888;28;20024;-50
2022/09/05 10:48:05;;;;;;;9.85;8.23;;;25.00;82.50;;;;;;5064990;28;20114;-48
2022/09/05 10:50:59;;;;;;;11.23;9.65;;;25.00;82.00;;;;;;5087254;28;20024;-49
2022/09/05 10:54:16;;;;;;;9.88;8.90;;;25.00;81.90;;;;;;5070296;28;20031;-51
2022/09/05 10:57:25;;;;;;;11.52;8.88;;;25.10;81.90;;;;;;5089910;28;20051;-51
2022/09/05 11:00:46;;;;;;;10.00;8.57;;;25.10;81.90;;;;;;5074635;28;20055;-56
2022/09/05 11:03:46;;;;;;;12.30;8.68;;;25.30;81.70;;;;;;5084726;28;20020;-54
2022/09/05 11:06:41;;;;;;;8.98;8.05;;;25.50;81.20;;;;;;5087647;28;20036;-52
2022/09/05 11:09:58;;;;;;;10.02;8.25;;;25.60;80.80;;;;;;5063227;28;20404;-50
2022/09/05 11:12:50;;;;;;;9.30;8.45;;;25.70;80.60;;;;;;5069935;28;20028;-54
2022/09/05 11:15:41;;;;;;;8.98;7.93;;;25.70;80.70;;;;;;5056406;28;20016;-50
2022/09/05 11:19:16;;;;;;;8.77;7.88;;;25.80;80.40;;;;;;5059366;28;20115;-53
2022/09/05 11:22:06;;;;;;;10.30;8.85;;;25.80;80.10;;;;;;5057019;28;20642;-51
2022/09/05 11:25:01;;;;;;;9.45;8.38;;;25.80;80.10;;;;;;5069320;28;20028;-54
2022/09/05 11:27:51;;;;;;;9.85;7.93;;;25.90;80.00;;;;;;5088036;28;20504;-51
2022/09/05 11:30:42;;;;;;;9.52;7.65;;;26.00;79.70;;;;;;5069112;28;20112;-52
2022/09/05 11:33:57;;;;;;;12.88;8.63;;;26.10;79.40;;;;;;5084515;28;20028;-51
2022/09/05 11:36:48;;;;;;;10.10;7.85;;;26.10;79.30;;;;;;5085233;28;20472;-50
2022/09/05 11:40:08;;;;;;;10.98;7.40;;;26.10;79.30;;;;;;5069571;28;20389;-51
2022/09/05 11:43:31;;;;;;;10.57;7.90;;;26.20;79.20;;;;;;5068678;28;20163;-53
2022/09/05 11:46:39;;;;;;;9.95;8.10;;;26.20;78.90;;;;;;5075829;28;20572;-48
2022/09/05 11:49:54;;;;;;;8.50;7.68;;;26.10;79.00;;;;;;5089721;28;20016;-54
2022/09/05 11:52:58;;;;;;;9.38;7.60;;;26.30;78.90;;;;;;5074665;28;20043;-54
2022/09/05 11:56:18;;;;;;;9.27;8.30;;;26.20;79.10;;;;;;5073325;28;20064;-56
2022/09/05 11:59:21;;;;;;;9.48;8.40;;;26.10;79.00;;;;;;5082387;28;20247;-50
2022/09/05 12:02:22;;;;;;;8.70;7.90;;;26.20;78.80;;;;;;5051707;28;20074;-54
2022/09/05 12:05:36;;;;;;;9.55;8.52;;;26.30;78.60;;;;;;5071689;28;20021;-53
2022/09/05 12:08:41;;;;;;;9.23;7.75;;;26.40;78.40;;;;;;5084287;28;20036;-51
2022/09/05 12:11:27;;;;;;;8.88;8.05;;;26.50;78.20;;;;;;5091858;28;20024;-54
2022/09/05 12:14:37;;;;;;;9.02;7.78;;;26.60;78.20;;;;;;5074376;28;20037;-54
2022/09/05 12:17:30;;;;;;;9.30;7.80;;;26.70;77.80;;;;;;5071513;28;20049;-52
2022/09/05 12:20:34;;;;;;;7.88;7.18;;;26.90;77.30;;;;;;5071598;28;20111;-57
2022/09/05 12:23:53;;;;;;;9.65;7.95;;;26.90;77.20;;;;;;5071760;28;20067;-53
2022/09/05 12:27:02;;;;;;;8.60;7.15;;;27.10;77.10;;;;;;5061714;28;20687;-49
2022/09/05 12:29:53;;;;;;;8.32;7.50;;;27.30;76.70;;;;;;5052113;28;20036;-51
2022/09/05 12:33:09;;;;;;;9.15;8.20;;;27.30;76.00;;;;;;5060642;28;20028;-53
2022/09/05 12:36:44;;;;;;;10.65;7.65;;;27.40;76.00;;;;;;5090134;28;20024;-51
2022/09/05 12:39:40;;;;;;;12.27;8.40;;;27.50;75.80;;;;;;5032386;28;20059;-51
2022/09/05 12:42:55;;;;;;;12.05;7.78;;;27.60;75.30;;;;;;5036870;28;20057;-56
2022/09/05 12:45:50;;;;;;;12.07;9.00;;;27.70;74.80;;;;;;5089212;28;20034;-51
2022/09/05 12:49:01;;;;;;;14.18;8.90;;;27.70;75.10;;;;;;5090211;28;20027;-50
2022/09/05 12:52:01;;;;;;;16.50;10.98;;;27.80;74.60;;;;;;5071299;28;20381;-51
2022/09/05 12:54:58;;;;;;;9.15;8.20;;;28.00;74.10;;;;;;5080767;28;20112;-55
2022/09/05 12:57:47;;;;;;;9.63;8.70;;;28.20;73.70;;;;;;5090382;28;20074;-51
2022/09/05 13:00:47;;;;;;;13.48;11.35;;;28.30;73.40;;;;;;5075661;28;20032;-50
2022/09/05 13:03:42;;;;;;;17.70;8.73;;;28.40;73.60;;;;;;5070963;28;20031;-54
2022/09/05 13:06:34;;;;;;;8.68;7.50;;;28.50;73.00;;;;;;5051978;28;20032;-49
2022/09/05 13:09:47;;;;;;;16.55;14.50;;;28.60;72.80;;;;;;5061924;28;20039;-50
2022/09/05 13:12:42;;;;;;;10.55;7.90;;;28.70;72.90;;;;;;5091526;28;20166;-49
2022/09/05 13:15:37;;;;;;;10.10;6.90;;;28.50;72.30;;;;;;5075880;28;20104;-54
2022/09/05 13:18:36;;;;;;;8.88;7.15;;;28.60;72.40;;;;;;5070813;28;20028;-53
2022/09/05 13:21:25;;;;;;;10.55;6.88;;;28.70;72.40;;;;;;5069864;28;20024;-55
2022/09/05 13:24:20;;;;;;;7.80;7.07;;;28.90;71.90;;;;;;5070851;28;20070;-54
2022/09/05 13:27:13;;;;;;;8.50;7.65;;;29.10;71.50;;;;;;5071161;28;20024;-53
2022/09/05 13:30:07;;;;;;;8.18;7.20;;;29.10;70.00;;;;;;5051813;28;20044;-55
2022/09/05 13:32:58;;;;;;;9.73;7.25;;;29.10;70.90;;;;;;5056577;28;20527;-49
2022/09/05 13:36:04;;;;;;;12.82;10.13;;;29.40;70.80;;;;;;5090563;28;20112;-52
2022/09/05 13:38:59;;;;;;;12.15;7.80;;;29.60;70.50;;;;;;5063283;28;20034;-54
2022/09/05 13:41:58;;;;;;;10.00;6.38;;;29.70;70.30;;;;;;5068495;28;20021;-55
2022/09/05 13:44:46;;;;;;;8.60;7.10;;;29.60;70.00;;;;;;5065770;28;20088;-52
2022/09/05 13:48:10;;;;;;;19.63;15.77;;;29.80;70.10;;;;;;5069322;28;20095;-53
2022/09/05 13:51:28;;;;;;;10.55;8.55;;;29.80;69.20;;;;;;5077096;28;20020;-50
2022/09/05 13:54:43;;;;;;;12.15;10.88;;;29.90;69.10;;;;;;5075319;28;20035;-53
2022/09/05 13:57:42;;;;;;;8.25;7.00;;;29.80;68.90;;;;;;5069907;28;20074;-55
2022/09/05 14:00:37;;;;;;;7.10;6.50;;;29.80;68.20;;;;;;5072836;28;20396;-51
2022/09/05 14:03:48;;;;;;;8.50;6.38;;;30.00;68.40;;;;;;5089374;28;20028;-54
2022/09/05 14:06:57;;;;;;;11.00;6.43;;;30.00;67.60;;;;;;5078237;28;20028;-51
2022/09/05 14:10:05;;;;;;;7.88;6.45;;;30.10;67.80;;;;;;5054770;28;20041;-54
2022/09/05 14:13:01;;;;;;;8.48;6.38;;;30.20;66.80;;;;;;5069903;28;20028;-58
2022/09/05 14:16:04;;;;;;;8.45;7.05;;;29.60;68.30;;;;;;5084033;28;20032;-53
2022/09/05 14:22:09;;;;;;;7.35;6.60;;;29.80;68.30;;;;;;5050825;28;20505;-54
2022/09/05 14:24:55;;;;;;;8.25;6.28;;;29.90;67.70;;;;;;5050197;28;20663;-55
2022/09/05 14:27:45;;;;;;;7.53;5.57;;;29.80;67.10;;;;;;5049631;28;20029;-55
2022/09/05 14:30:45;;;;;;;6.20;5.70;;;29.90;66.90;;;;;;5050608;28;20247;-54
2022/09/05 14:33:38;;;;;;;8.40;5.70;;;30.10;66.40;;;;;;5051094;28;20040;-56
2022/09/05 14:36:38;;;;;;;6.93;6.15;;;30.30;66.20;;;;;;5051289;28;20108;-55
2022/09/05 14:39:42;;;;;;;7.85;5.35;;;30.30;66.70;;;;;;5049997;28;20028;-56
2022/09/05 14:42:37;;;;;;;9.60;6.00;;;30.60;65.90;;;;;;5049513;28;20085;-55
2022/09/05 14:45:30;;;;;;;6.10;5.50;;;30.90;65.40;;;;;;5049159;28;20036;-52
2022/09/05 14:48:54;;;;;;;7.80;5.97;;;31.10;65.00;;;;;;5049304;28;20025;-56
2022/09/05 14:51:45;;;;;;;6.47;5.88;;;31.40;64.60;;;;;;5049840;28;20028;-53
2022/09/05 14:54:37;;;;;;;6.72;5.35;;;31.50;64.40;;;;;;5049341;28;20507;-55
2022/09/05 14:57:38;;;;;;;17.17;6.28;;;31.70;63.80;;;;;;5051163;28;20454;-52
2022/09/05 15:00:26;;;;;;;6.55;5.72;;;31.80;64.10;;;;;;5049830;28;20022;-55
2022/09/05 15:03:13;;;;;;;5.70;5.20;;;31.90;63.50;;;;;;5049489;28;20037;-54
2022/09/05 15:05:59;;;;;;;9.25;6.03;;;32.00;63.70;;;;;;5049053;28;20033;-54
2022/09/05 15:08:47;;;;;;;7.50;6.00;;;32.20;63.30;;;;;;5035330;28;20036;-54
2022/09/05 15:11:35;;;;;;;7.18;5.85;;;32.40;63.00;;;;;;5049732;28;20025;-55
2022/09/05 15:14:26;;;;;;;6.25;4.97;;;32.50;62.50;;;;;;5064693;28;20521;-55
2022/09/05 15:17:20;;;;;;;9.65;5.55;;;32.50;62.20;;;;;;5073692;28;20727;-58
2022/09/05 15:20:07;;;;;;;5.90;5.40;;;32.50;62.10;;;;;;5072729;28;20112;-53
2022/09/05 15:22:54;;;;;;;8.23;5.85;;;32.50;62.00;;;;;;5077562;28;20055;-56
2022/09/05 15:25:56;;;;;;;10.57;6.10;;;32.40;62.30;;;;;;5074360;28;20024;-56
2022/09/05 15:28:45;;;;;;;7.78;5.80;;;31.60;62.30;;;;;;5055809;28;20031;-58
2022/09/05 15:31:34;;;;;;;7.47;6.28;;;31.80;62.50;;;;;;5072504;28;20118;-57
2022/09/05 15:34:27;;;;;;;8.60;5.53;;;31.70;62.20;;;;;;5073622;28;20024;-58
2022/09/05 15:37:21;;;;;;;8.07;6.22;;;30.90;63.00;;;;;;5076629;28;20031;-57